Time;durP1;ratioP1;P1;durP2;ratioP2;P2;SDS_P1;SDS_P2;PMS_P1;PMS_P2;Temp;Humidity;BMP_temperature;BMP_pressure;BME280_temperature;BME280_humidity;BME280_pressure;Samples;Min_cycle;Max_cycle;Signal;HPM_P1;HPM_P2
2022/05/31 00:01:51;;;;;;;5.43;3.50;;;8.20;99.90;;;;;;4989772;28;20443;-86
2022/05/31 00:04:17;;;;;;;5.18;3.40;;;8.50;99.90;;;;;;4990061;28;20095;-86
2022/05/31 00:06:44;;;;;;;5.40;3.22;;;7.90;99.90;;;;;;4990234;28;20106;-86
2022/05/31 00:09:10;;;;;;;5.05;3.50;;;7.90;99.90;;;;;;4992097;28;20035;-86
2022/05/31 00:11:37;;;;;;;6.72;3.53;;;8.80;99.90;;;;;;4988818;28;20096;-86
2022/05/31 00:14:04;;;;;;;6.13;3.50;;;7.80;99.90;;;;;;4986487;28;20034;-86
2022/05/31 00:16:30;;;;;;;4.88;3.53;;;8.50;99.90;;;;;;5001776;28;20046;-86
2022/05/31 00:18:56;;;;;;;4.97;3.45;;;8.60;99.90;;;;;;4991120;28;20057;-86
2022/05/31 00:21:35;;;;;;;6.32;3.67;;;8.20;99.90;;;;;;4991552;28;20401;-87
2022/05/31 00:24:01;;;;;;;6.15;3.63;;;7.80;99.90;;;;;;4974709;28;20482;-86
2022/05/31 00:26:27;;;;;;;5.93;3.40;;;8.10;99.90;;;;;;4990663;28;20042;-86
2022/05/31 00:28:52;;;;;;;7.47;3.53;;;7.80;99.90;;;;;;4974552;28;20096;-87
2022/05/31 00:31:18;;;;;;;5.75;3.50;;;7.80;99.90;;;;;;4990189;28;20053;-86
2022/05/31 00:33:44;;;;;;;5.13;3.47;;;8.30;99.90;;;;;;4990297;28;20050;-86
2022/05/31 00:36:09;;;;;;;4.32;3.00;;;7.70;99.90;;;;;;4973874;28;20057;-86
2022/05/31 00:38:48;;;;;;;5.60;3.25;;;7.70;99.90;;;;;;4989890;28;20439;-86
2022/05/31 00:41:26;;;;;;;6.05;3.78;;;8.00;99.90;;;;;;4989659;28;20054;-86
2022/05/31 00:43:57;;;;;;;5.72;3.40;;;7.70;99.90;;;;;;4989387;28;20061;-86
2022/05/31 00:46:26;;;;;;;5.70;3.58;;;7.70;99.90;;;;;;4989598;28;20512;-86
2022/05/31 00:48:59;;;;;;;7.20;3.60;;;7.70;99.90;;;;;;4976278;28;20039;-86
2022/05/31 00:51:37;;;;;;;5.45;3.40;;;7.70;99.90;;;;;;4993033;28;20057;-86
2022/05/31 00:54:07;;;;;;;4.72;3.30;;;7.70;99.90;;;;;;4992670;28;20125;-86
2022/05/31 00:56:34;;;;;;;6.40;3.55;;;7.60;99.90;;;;;;4976604;28;20093;-86
2022/05/31 00:58:59;;;;;;;5.70;3.28;;;7.60;99.90;;;;;;5004853;28;20069;-86
2022/05/31 01:01:27;;;;;;;5.90;3.78;;;8.20;99.90;;;;;;5012891;28;20062;-86
2022/05/31 01:03:55;;;;;;;4.65;3.35;;;8.30;99.90;;;;;;5001423;28;20073;-86
2022/05/31 01:06:20;;;;;;;6.00;3.97;;;7.60;99.90;;;;;;4976445;28;20053;-86
2022/05/31 01:08:53;;;;;;;5.53;3.55;;;7.60;99.90;;;;;;4992573;28;20401;-86
2022/05/31 01:11:21;;;;;;;6.55;3.80;;;8.30;99.90;;;;;;4976597;28;20061;-86
2022/05/31 01:13:47;;;;;;;6.65;3.83;;;7.60;99.90;;;;;;4992698;28;20042;-87
2022/05/31 01:16:16;;;;;;;6.25;3.78;;;7.70;99.90;;;;;;4992324;28;20049;-86
2022/05/31 01:18:42;;;;;;;5.88;3.92;;;7.60;99.90;;;;;;4976344;28;20054;-86
2022/05/31 01:21:08;;;;;;;5.63;3.60;;;8.40;99.90;;;;;;4976183;28;20043;-86
2022/05/31 01:24:03;;;;;;;5.43;3.33;;;7.80;99.90;;;;;;4992288;28;20053;-86
2022/05/31 01:26:53;;;;;;;6.40;3.90;;;7.50;99.90;;;;;;4996466;28;20490;-85
2022/05/31 01:29:31;;;;;;;8.82;3.90;;;7.50;99.90;;;;;;4992274;28;20046;-85
2022/05/31 01:32:00;;;;;;;8.27;4.00;;;7.50;99.90;;;;;;4992581;28;20054;-85
2022/05/31 01:34:54;;;;;;;8.13;3.90;;;8.30;99.90;;;;;;4976048;28;20046;-85
2022/05/31 01:37:27;;;;;;;5.57;3.70;;;8.40;99.90;;;;;;5034013;28;20056;-85
2022/05/31 01:39:59;;;;;;;6.68;3.92;;;8.20;99.90;;;;;;5037167;28;20061;-85
2022/05/31 01:42:32;;;;;;;7.18;4.15;;;8.40;99.90;;;;;;5020385;28;20060;-85
2022/05/31 01:45:08;;;;;;;5.57;4.00;;;7.60;99.90;;;;;;5019909;28;20142;-85
2022/05/31 01:47:36;;;;;;;6.00;3.90;;;7.50;99.90;;;;;;5036916;28;20053;-86
2022/05/31 01:50:08;;;;;;;6.57;4.35;;;7.60;99.90;;;;;;5020507;28;20067;-86
2022/05/31 01:52:37;;;;;;;6.25;3.92;;;7.60;99.90;;;;;;5019785;28;20041;-86
2022/05/31 01:55:03;;;;;;;8.32;4.18;;;8.30;99.90;;;;;;5020302;28;20088;-85
2022/05/31 01:57:32;;;;;;;6.95;4.28;;;7.70;99.90;;;;;;5037112;28;20153;-85
2022/05/31 02:00:05;;;;;;;6.82;4.30;;;7.90;99.90;;;;;;5019777;28;20556;-86
2022/05/31 02:02:31;;;;;;;6.53;4.40;;;7.60;99.90;;;;;;5036982;28;20088;-86
2022/05/31 02:04:57;;;;;;;6.32;3.95;;;7.60;99.90;;;;;;5037752;28;20167;-86
2022/05/31 02:07:27;;;;;;;6.07;3.95;;;8.20;99.90;;;;;;5040038;28;20409;-86
2022/05/31 02:09:54;;;;;;;7.00;4.13;;;8.00;99.90;;;;;;5025253;28;20114;-86
2022/05/31 02:12:23;;;;;;;6.40;3.70;;;7.80;99.90;;;;;;5019758;28;20171;-85
2022/05/31 02:14:48;;;;;;;7.13;3.90;;;7.90;99.90;;;;;;4985744;28;20050;-86
2022/05/31 02:17:16;;;;;;;6.45;4.30;;;8.60;99.90;;;;;;4975498;28;20444;-86
2022/05/31 02:19:43;;;;;;;6.68;3.88;;;7.70;99.90;;;;;;4991888;28;20104;-86
2022/05/31 02:22:12;;;;;;;7.10;3.90;;;7.70;99.90;;;;;;4991283;28;20129;-86
2022/05/31 02:24:38;;;;;;;5.47;4.00;;;8.40;99.90;;;;;;4975466;28;20047;-85
2022/05/31 02:27:05;;;;;;;6.50;3.83;;;7.80;99.90;;;;;;4975220;28;20046;-85
2022/05/31 02:29:33;;;;;;;6.28;3.95;;;8.30;99.90;;;;;;4991314;28;20042;-85
2022/05/31 02:32:00;;;;;;;6.47;4.10;;;7.80;99.90;;;;;;4975203;28;20046;-86
2022/05/31 02:34:30;;;;;;;5.80;3.80;;;8.50;99.90;;;;;;4991213;28;20045;-86
2022/05/31 02:36:56;;;;;;;5.65;4.18;;;7.80;99.90;;;;;;4975546;28;20047;-86
2022/05/31 02:39:23;;;;;;;6.07;4.07;;;8.40;99.90;;;;;;4991359;28;20190;-85
2022/05/31 02:41:49;;;;;;;6.20;4.00;;;7.80;99.90;;;;;;4974974;28;20053;-86
2022/05/31 02:44:15;;;;;;;7.30;3.95;;;8.50;99.90;;;;;;4991713;28;20539;-85
2022/05/31 02:46:41;;;;;;;6.35;3.67;;;8.10;99.90;;;;;;4991327;28;20100;-86
2022/05/31 02:49:08;;;;;;;6.85;3.95;;;8.30;99.90;;;;;;4974915;28;20095;-86
2022/05/31 02:51:40;;;;;;;6.53;4.25;;;7.90;99.90;;;;;;4974974;28;20637;-86
2022/05/31 02:54:07;;;;;;;5.57;3.97;;;8.40;99.90;;;;;;4974763;28;20045;-86
2022/05/31 02:56:32;;;;;;;5.97;3.97;;;8.50;99.90;;;;;;4991099;28;20054;-85
2022/05/31 02:58:59;;;;;;;6.35;3.95;;;8.50;99.90;;;;;;4991161;28;20046;-86
2022/05/31 03:01:31;;;;;;;5.75;4.00;;;8.60;99.90;;;;;;4991298;28;20042;-85
2022/05/31 03:03:57;;;;;;;9.30;4.00;;;8.80;99.90;;;;;;4974769;28;20043;-86
2022/05/31 03:06:23;;;;;;;5.40;3.78;;;7.90;99.90;;;;;;4974697;28;20042;-86
2022/05/31 03:08:52;;;;;;;6.00;3.85;;;8.60;99.90;;;;;;5023811;28;20046;-86
2022/05/31 03:11:46;;;;;;;6.10;4.13;;;7.90;99.90;;;;;;4989787;28;20050;-85
2022/05/31 03:14:30;;;;;;;6.60;3.95;;;8.00;99.90;;;;;;5009547;28;20018;-86
2022/05/31 03:17:15;;;;;;;6.75;4.07;;;8.00;99.90;;;;;;4996083;28;20061;-85
2022/05/31 03:19:48;;;;;;;6.05;4.07;;;8.70;99.90;;;;;;4974981;28;20042;-85
2022/05/31 03:22:18;;;;;;;6.00;4.20;;;8.60;99.90;;;;;;4990926;28;20046;-85
2022/05/31 03:24:52;;;;;;;6.75;3.95;;;8.90;99.90;;;;;;4990402;28;20047;-86
2022/05/31 03:27:18;;;;;;;6.43;4.00;;;8.20;99.90;;;;;;4991013;28;20047;-85
2022/05/31 03:29:46;;;;;;;7.50;4.60;;;8.30;99.90;;;;;;4974510;28;20111;-85
2022/05/31 03:32:12;;;;;;;6.32;4.20;;;8.40;99.90;;;;;;4974378;28;20500;-85
2022/05/31 03:34:38;;;;;;;6.00;4.22;;;8.00;99.90;;;;;;4990596;28;20053;-86
2022/05/31 03:37:04;;;;;;;6.93;3.88;;;8.10;99.90;;;;;;4990571;28;20042;-86
2022/05/31 03:39:30;;;;;;;6.10;4.13;;;8.10;99.90;;;;;;4974516;28;20477;-86
2022/05/31 03:41:56;;;;;;;8.05;4.45;;;8.50;99.90;;;;;;4974480;28;20082;-86
2022/05/31 03:44:21;;;;;;;6.65;4.38;;;8.20;99.90;;;;;;4973917;28;20137;-86
2022/05/31 03:46:50;;;;;;;5.45;4.28;;;8.70;99.90;;;;;;4974227;28;20050;-86
2022/05/31 03:49:16;;;;;;;8.10;4.75;;;8.20;99.90;;;;;;4990141;28;20050;-86
2022/05/31 03:51:42;;;;;;;5.93;4.50;;;8.20;99.90;;;;;;4974033;28;20137;-86
2022/05/31 03:54:12;;;;;;;7.30;4.40;;;8.90;99.90;;;;;;4990191;28;20133;-86
2022/05/31 03:56:38;;;;;;;6.63;4.30;;;8.20;99.90;;;;;;4990453;28;20049;-86
2022/05/31 03:59:04;;;;;;;7.28;4.50;;;8.40;99.90;;;;;;4973659;28;20389;-86
2022/05/31 04:01:29;;;;;;;6.75;4.18;;;8.60;99.90;;;;;;4973990;28;20493;-86
2022/05/31 04:03:56;;;;;;;8.00;4.35;;;8.30;99.90;;;;;;4990433;28;20389;-86
2022/05/31 04:06:22;;;;;;;7.30;4.30;;;9.20;99.90;;;;;;4989911;28;20058;-85
2022/05/31 04:08:47;;;;;;;8.10;4.30;;;9.10;99.90;;;;;;4989874;28;20131;-85
2022/05/31 04:11:13;;;;;;;6.25;4.55;;;8.60;99.90;;;;;;4974001;28;20129;-86
2022/05/31 04:13:39;;;;;;;6.03;4.07;;;9.40;99.90;;;;;;4990198;28;20154;-86
2022/05/31 04:16:12;;;;;;;7.85;4.53;;;8.40;99.90;;;;;;4973851;28;20488;-86
2022/05/31 04:18:39;;;;;;;7.22;4.32;;;8.40;99.90;;;;;;4989968;28;20054;-87
2022/05/31 04:21:07;;;;;;;7.28;4.55;;;8.80;99.90;;;;;;4973862;28;20038;-86
2022/05/31 04:26:18;;;;;;;8.13;4.63;;;8.50;99.90;;;;;;4997510;28;20497;-86
2022/05/31 04:28:44;;;;;;;9.43;5.05;;;8.60;99.90;;;;;;5009218;28;20043;-86
2022/05/31 04:31:10;;;;;;;6.35;4.30;;;9.30;99.90;;;;;;4991400;28;20061;-86
2022/05/31 04:33:36;;;;;;;7.32;4.45;;;9.10;99.90;;;;;;4977263;28;20558;-86
2022/05/31 04:36:05;;;;;;;7.93;4.70;;;9.10;99.90;;;;;;4993318;28;20082;-86
2022/05/31 04:38:31;;;;;;;7.13;4.78;;;8.70;99.90;;;;;;4993416;28;20489;-86
2022/05/31 04:40:56;;;;;;;6.40;4.38;;;9.10;99.90;;;;;;4977292;28;20061;-86
2022/05/31 04:43:23;;;;;;;6.50;4.40;;;9.30;99.90;;;;;;4992888;28;20054;-86
2022/05/31 04:45:48;;;;;;;7.15;4.85;;;9.60;99.90;;;;;;4976970;28;20057;-86
2022/05/31 04:48:14;;;;;;;5.68;4.05;;;9.50;99.90;;;;;;4977395;28;20050;-86
2022/05/31 04:50:40;;;;;;;8.30;4.63;;;9.10;99.90;;;;;;4977431;28;20046;-86
2022/05/31 04:53:05;;;;;;;6.03;4.35;;;9.70;99.90;;;;;;4993237;28;20095;-86
2022/05/31 04:55:31;;;;;;;8.27;4.50;;;9.80;99.90;;;;;;4992927;28;20089;-86
2022/05/31 04:57:57;;;;;;;8.30;4.53;;;9.70;99.90;;;;;;4993084;28;20049;-86
2022/05/31 05:00:23;;;;;;;7.00;4.85;;;9.30;99.90;;;;;;4992808;28;20046;-85
2022/05/31 05:02:48;;;;;;;7.50;4.97;;;9.00;99.90;;;;;;4976916;28;20053;-86
2022/05/31 05:05:14;;;;;;;6.50;4.70;;;9.00;99.90;;;;;;4976517;28;20042;-86
2022/05/31 05:07:40;;;;;;;7.80;4.25;;;9.00;99.90;;;;;;4992564;28;20060;-86
2022/05/31 05:10:07;;;;;;;8.98;4.38;;;9.00;99.90;;;;;;4976883;28;20129;-86
2022/05/31 05:12:33;;;;;;;6.65;4.28;;;9.10;99.90;;;;;;4992834;28;20423;-85
2022/05/31 05:14:58;;;;;;;7.47;4.35;;;9.70;99.90;;;;;;4992841;28;20038;-86
2022/05/31 05:17:25;;;;;;;6.93;4.60;;;9.20;99.90;;;;;;4976991;28;20092;-85
2022/05/31 05:19:51;;;;;;;7.90;4.70;;;9.90;99.90;;;;;;4982161;28;20442;-85
2022/05/31 05:22:16;;;;;;;6.68;4.53;;;9.40;99.90;;;;;;4996672;28;20045;-85
2022/05/31 05:24:42;;;;;;;7.35;4.50;;;10.30;99.90;;;;;;4980067;28;20057;-85
2022/05/31 05:27:08;;;;;;;6.72;4.78;;;9.50;99.90;;;;;;5004522;28;20043;-86
2022/05/31 05:32:18;;;;;;;7.43;4.30;;;9.80;99.90;;;;;;4992458;28;20082;-86
2022/05/31 05:34:43;;;;;;;6.85;4.35;;;10.50;99.90;;;;;;4991716;28;20077;-85
2022/05/31 05:37:09;;;;;;;6.95;4.07;;;10.10;99.90;;;;;;4992405;28;20051;-85
2022/05/31 05:39:35;;;;;;;6.50;4.28;;;9.90;99.90;;;;;;4992295;28;20106;-86
2022/05/31 05:42:00;;;;;;;7.25;4.30;;;10.00;99.90;;;;;;4977174;28;20057;-86
2022/05/31 05:44:26;;;;;;;5.75;4.32;;;10.80;99.90;;;;;;4976036;28;20065;-86
2022/05/31 05:46:52;;;;;;;7.28;4.28;;;10.40;99.90;;;;;;4976321;28;20141;-86
2022/05/31 05:49:18;;;;;;;6.65;4.07;;;10.40;99.90;;;;;;4992557;28;20103;-85
2022/05/31 05:51:45;;;;;;;5.20;3.85;;;10.30;99.90;;;;;;4992208;28;20129;-86
2022/05/31 05:54:17;;;;;;;7.18;4.20;;;10.30;99.90;;;;;;4991958;28;20047;-86
2022/05/31 05:56:43;;;;;;;12.77;4.57;;;11.10;99.90;;;;;;4977757;28;20395;-87
2022/05/31 05:59:09;;;;;;;6.35;4.10;;;10.70;99.90;;;;;;4975992;28;20047;-86
2022/05/31 06:01:42;;;;;;;6.10;3.50;;;10.50;99.90;;;;;;4991984;28;20049;-86
2022/05/31 06:04:19;;;;;;;7.25;3.90;;;10.50;99.90;;;;;;4975741;28;20042;-86
2022/05/31 06:06:46;;;;;;;6.32;4.03;;;10.70;99.90;;;;;;4991982;28;20129;-85
2022/05/31 06:09:18;;;;;;;6.60;3.80;;;10.60;99.90;;;;;;4975494;28;20420;-86
2022/05/31 06:11:49;;;;;;;6.15;3.97;;;11.30;99.90;;;;;;4991473;28;20059;-86
2022/05/31 06:14:18;;;;;;;6.13;3.53;;;11.20;99.90;;;;;;4976044;28;20243;-85
2022/05/31 06:16:55;;;;;;;6.75;3.55;;;11.00;99.90;;;;;;4991670;28;20047;-86
2022/05/31 06:19:40;;;;;;;5.32;3.53;;;10.80;99.90;;;;;;4991972;28;20152;-85
2022/05/31 06:22:07;;;;;;;5.55;3.40;;;11.80;99.90;;;;;;4975411;28;20453;-86
2022/05/31 06:24:35;;;;;;;7.38;3.63;;;11.20;99.90;;;;;;4975264;28;20053;-85
2022/05/31 06:27:01;;;;;;;6.90;3.85;;;11.50;99.90;;;;;;4991689;28;20046;-87
2022/05/31 06:29:30;;;;;;;5.53;3.80;;;11.30;99.90;;;;;;4975100;28;20446;-86
2022/05/31 06:31:55;;;;;;;6.38;3.58;;;11.80;99.90;;;;;;4976143;28;20046;-87
2022/05/31 06:34:23;;;;;;;7.47;3.67;;;11.70;99.90;;;;;;4991521;28;20064;-87
2022/05/31 06:36:49;;;;;;;6.60;3.22;;;11.60;99.90;;;;;;4975306;28;20137;-85
2022/05/31 06:39:15;;;;;;;5.95;3.30;;;12.20;99.90;;;;;;4975394;28;20050;-86
2022/05/31 06:41:41;;;;;;;7.53;3.53;;;12.30;99.90;;;;;;4991438;28;20046;-87
2022/05/31 06:44:06;;;;;;;9.70;3.75;;;12.10;99.90;;;;;;4975004;28;20509;-87
2022/05/31 06:46:32;;;;;;;6.72;3.20;;;12.20;99.90;;;;;;4974186;28;20103;-86
2022/05/31 06:48:59;;;;;;;6.53;3.17;;;12.40;99.90;;;;;;4975084;28;20421;-87
2022/05/31 06:57:01;;;;;;;5.15;3.17;;;12.40;99.90;;;;;;5034498;22;20053;-87
2022/05/31 06:59:27;;;;;;;6.20;3.10;;;12.90;99.90;;;;;;5033126;28;20041;-87
2022/05/31 07:01:53;;;;;;;6.32;3.00;;;12.90;99.90;;;;;;5017165;28;20068;-87
2022/05/31 07:04:19;;;;;;;4.75;3.30;;;12.90;99.90;;;;;;5033063;28;20049;-87
2022/05/31 07:06:45;;;;;;;6.63;3.10;;;13.70;99.90;;;;;;5016831;28;20056;-89
2022/05/31 07:09:14;;;;;;;3.95;2.70;;;13.80;99.90;;;;;;5017053;28;20041;-89
2022/05/31 07:11:39;;;;;;;5.43;3.10;;;13.80;99.90;;;;;;5016688;28;20075;-88
2022/05/31 07:14:05;;;;;;;6.90;3.30;;;13.40;99.90;;;;;;5017171;28;20132;-88
2022/05/31 07:16:31;;;;;;;5.25;3.10;;;13.60;99.90;;;;;;5033159;28;20041;-88
2022/05/31 07:18:57;;;;;;;4.80;2.75;;;13.90;99.90;;;;;;5033038;28;20053;-87
2022/05/31 07:21:24;;;;;;;4.18;3.05;;;13.90;99.90;;;;;;5019653;28;20076;-88
2022/05/31 07:23:50;;;;;;;7.28;2.80;;;14.00;99.90;;;;;;5036709;28;20042;-86
2022/05/31 07:26:15;;;;;;;4.85;3.00;;;14.60;99.90;;;;;;5019989;28;20114;-87
2022/05/31 07:28:41;;;;;;;4.28;2.72;;;14.30;99.90;;;;;;5016842;28;20041;-88
2022/05/31 07:31:07;;;;;;;5.53;3.15;;;14.30;99.90;;;;;;5016595;28;20053;-86
2022/05/31 07:33:35;;;;;;;6.15;3.33;;;15.00;99.90;;;;;;5016706;28;20045;-88
2022/05/31 07:36:03;;;;;;;5.60;2.80;;;14.50;99.90;;;;;;5040005;28;20033;-87
2022/05/31 07:38:29;;;;;;;4.15;3.22;;;14.50;99.90;;;;;;5033363;28;20048;-88
2022/05/31 07:40:55;;;;;;;6.97;2.95;;;14.70;99.90;;;;;;5022102;28;20135;-88
2022/05/31 07:43:21;;;;;;;4.93;3.13;;;14.70;99.90;;;;;;5018108;28;20045;-88
2022/05/31 07:45:47;;;;;;;6.00;3.40;;;15.20;99.90;;;;;;5016496;28;20045;-88
2022/05/31 07:48:13;;;;;;;6.82;3.40;;;14.90;99.90;;;;;;5032912;28;20134;-88
2022/05/31 07:50:42;;;;;;;6.50;3.47;;;15.00;99.90;;;;;;5017845;28;20473;-90
2022/05/31 07:53:08;;;;;;;8.07;3.20;;;15.30;99.90;;;;;;5016678;28;20045;-87
2022/05/31 07:55:34;;;;;;;7.30;3.63;;;15.10;99.90;;;;;;5016356;28;20049;-88
2022/05/31 08:00:44;;;;;;;5.70;3.35;;;15.40;99.90;;;;;;5033478;28;20100;-87
2022/05/31 08:03:10;;;;;;;4.78;3.30;;;15.50;99.90;;;;;;5016643;28;20496;-88
2022/05/31 08:05:40;;;;;;;6.80;3.25;;;15.40;99.90;;;;;;5016302;28;20049;-88
2022/05/31 08:08:06;;;;;;;5.60;3.50;;;15.50;99.90;;;;;;5016191;28;20042;-88
2022/05/31 08:10:32;;;;;;;6.00;3.55;;;15.70;99.90;;;;;;5016633;28;20552;-88
2022/05/31 08:12:57;;;;;;;6.43;3.80;;;15.90;99.90;;;;;;5016160;28;20080;-88
2022/05/31 08:15:23;;;;;;;5.93;3.78;;;16.30;99.90;;;;;;5024050;23;20149;-87
2022/05/31 08:17:49;;;;;;;6.75;3.88;;;16.10;99.90;;;;;;5017605;28;20103;-87
2022/05/31 08:20:20;;;;;;;6.72;4.43;;;16.10;99.90;;;;;;5016185;28;20412;-87
2022/05/31 08:23:01;;;;;;;9.55;4.13;;;16.30;99.90;;;;;;5016527;28;20041;-87
2022/05/31 08:25:27;;;;;;;7.60;4.30;;;16.40;99.90;;;;;;5032405;28;20389;-87
2022/05/31 08:27:53;;;;;;;6.97;3.88;;;16.50;99.90;;;;;;5033184;28;20042;-88
2022/05/31 08:30:24;;;;;;;6.13;4.10;;;16.60;99.90;;;;;;5032596;28;20046;-88
2022/05/31 08:32:50;;;;;;;6.15;4.05;;;16.60;99.90;;;;;;5016744;28;20191;-87
2022/05/31 08:35:15;;;;;;;6.95;4.07;;;16.60;99.90;;;;;;5016234;28;20132;-87
2022/05/31 08:37:42;;;;;;;8.68;3.65;;;16.70;99.90;;;;;;5016423;28;20098;-88
2022/05/31 08:40:09;;;;;;;8.45;3.70;;;17.00;99.90;;;;;;5016246;28;20113;-87
2022/05/31 08:42:50;;;;;;;7.28;3.42;;;17.10;99.90;;;;;;5032450;28;20042;-87
2022/05/31 08:45:38;;;;;;;8.23;4.18;;;17.20;99.90;;;;;;5016129;28;20049;-85
2022/05/31 08:48:14;;;;;;;7.50;3.97;;;17.10;99.90;;;;;;5037116;28;20133;-87
2022/05/31 08:56:56;;;;;;;6.53;3.72;;;17.10;99.90;;;;;;5032239;28;20049;-87
2022/05/31 08:56:57;;;;;;;6.78;3.88;;;17.40;99.90;;;;;;5032703;28;20052;-89
2022/05/31 08:59:40;;;;;;;6.25;4.05;;;17.60;99.90;;;;;;5016027;28;20049;-88
2022/05/31 09:02:16;;;;;;;9.23;3.95;;;17.90;99.90;;;;;;5016478;28;20049;-88
2022/05/31 09:04:47;;;;;;;6.20;4.32;;;17.90;99.90;;;;;;5033614;28;20048;-89
2022/05/31 09:07:25;;;;;;;6.82;3.55;;;17.80;99.90;;;;;;5018271;28;20045;-88
2022/05/31 09:10:19;;;;;;;7.32;4.22;;;17.70;99.90;;;;;;5023366;28;20048;-88
2022/05/31 09:12:52;;;;;;;7.88;4.15;;;17.60;99.90;;;;;;5019923;28;20045;-88
2022/05/31 09:15:37;;;;;;;7.53;4.03;;;17.50;99.90;;;;;;5036524;28;20053;-88
2022/05/31 09:18:07;;;;;;;11.18;4.05;;;17.30;99.90;;;;;;5019097;28;20049;-88
2022/05/31 09:20:46;;;;;;;7.43;3.75;;;17.20;99.90;;;;;;5019594;28;20045;-88
2022/05/31 09:23:22;;;;;;;7.65;3.40;;;17.20;99.90;;;;;;5035590;28;20048;-87
2022/05/31 09:25:52;;;;;;;;;;;17.00;99.90;;;;;;5019246;28;20049;-88
2022/05/31 09:28:38;;;;;;;7.82;3.35;;;16.90;99.90;;;;;;5035410;28;20007;-88
2022/05/31 09:31:29;;;;;;;6.68;3.30;;;16.90;99.90;;;;;;5011588;28;20061;-87
2022/05/31 09:34:35;;;;;;;7.80;3.55;;;16.80;99.90;;;;;;5018704;28;20132;-87
2022/05/31 09:37:28;;;;;;;6.68;3.72;;;16.60;99.90;;;;;;4962715;28;20038;-87
2022/05/31 09:40:09;;;;;;;7.90;3.88;;;16.60;99.90;;;;;;4962732;28;20375;-88
2022/05/31 09:43:03;;;;;;;6.07;3.60;;;16.50;99.90;;;;;;4979052;28;20517;-87
2022/05/31 09:45:34;;;;;;;10.32;3.83;;;16.50;99.90;;;;;;4962130;28;20049;-88
2022/05/31 09:48:04;;;;;;;6.57;4.00;;;16.60;99.90;;;;;;4979044;28;20089;-87
2022/05/31 09:50:30;;;;;;;7.60;3.85;;;16.60;99.90;;;;;;4980908;28;20035;-88
2022/05/31 09:52:57;;;;;;;7.13;3.90;;;16.60;99.90;;;;;;4993445;28;20553;-87
2022/05/31 09:58:36;;;;;;;5.80;3.50;;;16.60;99.90;;;;;;4978490;28;20062;-88
2022/05/31 10:01:13;;;;;;;5.22;3.70;;;16.60;99.90;;;;;;4946875;28;20038;-88
2022/05/31 10:03:40;;;;;;;9.02;4.50;;;16.60;99.90;;;;;;4962213;28;20092;-88
2022/05/31 10:06:18;;;;;;;6.63;3.83;;;16.50;99.90;;;;;;4978348;28;20114;-87
2022/05/31 10:08:51;;;;;;;7.47;3.88;;;16.40;99.90;;;;;;4977985;28;20109;-87
2022/05/31 10:11:37;;;;;;;6.75;3.42;;;16.60;99.90;;;;;;5014007;28;20073;-85
2022/05/31 10:14:21;;;;;;;7.18;3.08;;;16.30;99.90;;;;;;5034872;28;20507;-87
2022/05/31 10:16:49;;;;;;;6.57;3.08;;;16.40;99.90;;;;;;5033670;28;20428;-87
2022/05/31 10:19:33;;;;;;;5.75;3.00;;;16.30;99.90;;;;;;5017801;28;20111;-86
2022/05/31 10:22:16;;;;;;;4.55;2.70;;;16.40;99.90;;;;;;5017704;28;20042;-87
2022/05/31 10:24:41;;;;;;;6.82;2.97;;;16.30;99.90;;;;;;5017802;28;20084;-86
2022/05/31 10:27:20;;;;;;;7.13;3.05;;;16.40;99.90;;;;;;5017640;28;20077;-86
2022/05/31 10:29:51;;;;;;;5.70;2.75;;;16.30;99.90;;;;;;5017464;28;20043;-87
2022/05/31 10:32:34;;;;;;;6.63;3.45;;;16.90;99.90;;;;;;5034065;28;20049;-86
2022/05/31 10:35:31;;;;;;;4.95;2.92;;;16.50;99.90;;;;;;5034091;28;20072;-86
2022/05/31 10:38:15;;;;;;;6.13;3.40;;;16.60;99.90;;;;;;5033762;28;20041;-86
2022/05/31 10:40:41;;;;;;;6.35;3.53;;;16.70;99.90;;;;;;5033663;28;20104;-86
2022/05/31 10:43:35;;;;;;;6.13;3.30;;;16.70;99.90;;;;;;5017213;28;20041;-86
2022/05/31 10:46:08;;;;;;;5.60;2.88;;;16.80;99.90;;;;;;4977051;28;20058;-87
2022/05/31 10:48:42;;;;;;;5.78;2.97;;;16.80;99.90;;;;;;4977261;28;20050;-86
2022/05/31 10:51:24;;;;;;;8.13;3.10;;;16.90;99.90;;;;;;4977003;28;20145;-87
2022/05/31 10:54:10;;;;;;;5.85;3.08;;;17.00;99.90;;;;;;4977043;28;20130;-87
2022/05/31 10:56:44;;;;;;;5.35;3.00;;;17.00;99.90;;;;;;4977161;28;20177;-87
2022/05/31 10:59:24;;;;;;;6.93;3.65;;;17.10;99.90;;;;;;4977234;28;20054;-87
2022/05/31 11:02:23;;;;;;;6.50;3.55;;;17.00;99.90;;;;;;4945283;28;20049;-87
2022/05/31 11:05:07;;;;;;;8.75;4.13;;;17.10;99.90;;;;;;4976674;28;20050;-87
2022/05/31 11:13:56;;;;;;;6.07;4.07;;;17.00;99.90;;;;;;4976696;28;20054;-87
2022/05/31 11:16:27;;;;;;;5.68;3.72;;;16.90;99.90;;;;;;4976772;28;20050;-87
2022/05/31 11:19:19;;;;;;;8.40;4.22;;;17.00;99.90;;;;;;4977759;28;20050;-87
2022/05/31 11:21:48;;;;;;;5.95;4.20;;;17.00;99.90;;;;;;4974390;28;20050;-87
2022/05/31 11:24:57;;;;;;;7.28;3.85;;;17.10;99.90;;;;;;5016478;28;20045;-86
2022/05/31 11:27:30;;;;;;;8.20;3.92;;;17.00;99.90;;;;;;5033071;28;20045;-87
2022/05/31 11:30:11;;;;;;;7.40;4.25;;;17.00;99.90;;;;;;5032983;28;20041;-87
2022/05/31 11:33:11;;;;;;;6.43;3.80;;;16.90;99.90;;;;;;5016852;28;20049;-88
2022/05/31 11:35:59;;;;;;;7.57;4.15;;;16.90;99.90;;;;;;5032662;28;20477;-87
2022/05/31 11:39:14;;;;;;;6.07;3.92;;;16.80;99.90;;;;;;5019772;28;20033;-86
2022/05/31 11:41:49;;;;;;;9.48;4.47;;;16.60;99.90;;;;;;5038938;28;20065;-86
2022/05/31 11:44:48;;;;;;;7.00;4.35;;;16.50;99.90;;;;;;5038565;28;20488;-87
2022/05/31 11:47:25;;;;;;;8.75;4.70;;;16.50;99.90;;;;;;5018699;28;20067;-87
2022/05/31 11:49:56;;;;;;;7.15;3.53;;;16.60;99.90;;;;;;5034597;28;20055;-87
2022/05/31 11:52:46;;;;;;;5.88;3.30;;;16.30;99.90;;;;;;5037619;28;20198;-85
2022/05/31 11:55:43;;;;;;;8.77;4.10;;;16.30;99.90;;;;;;5038269;28;20057;-86
2022/05/31 11:58:53;;;;;;;7.22;4.45;;;16.30;99.90;;;;;;5032442;28;20045;-86
2022/05/31 12:01:37;;;;;;;6.40;4.68;;;16.30;99.90;;;;;;4998434;28;20509;-86
2022/05/31 12:04:32;;;;;;;6.77;4.07;;;16.20;99.90;;;;;;4999141;28;20050;-85
2022/05/31 12:07:41;;;;;;;6.32;4.15;;;16.30;99.90;;;;;;5018352;28;20054;-85
2022/05/31 12:10:37;;;;;;;6.63;4.03;;;16.10;99.90;;;;;;4868529;29;20053;-86
2022/05/31 12:13:07;;;;;;;6.78;4.07;;;16.10;99.90;;;;;;4868056;29;20108;-87
2022/05/31 12:15:43;;;;;;;7.20;4.18;;;16.00;99.90;;;;;;4846897;29;20049;-86
2022/05/31 12:18:11;;;;;;;;;;;15.90;99.90;;;;;;4863009;29;20508;-86
2022/05/31 12:20:40;;;;;;;7.43;3.72;;;15.80;99.90;;;;;;4862546;29;19931;-86
2022/05/31 12:23:20;;;;;;;7.30;4.22;;;15.70;99.90;;;;;;4862002;29;20049;-87
2022/05/31 12:25:54;;;;;;;6.80;4.25;;;15.60;99.90;;;;;;4862562;29;20307;-86
2022/05/31 12:28:26;;;;;;;6.90;4.13;;;15.50;99.90;;;;;;4877734;29;20062;-86
2022/05/31 12:31:23;;;;;;;9.05;5.30;;;15.30;99.90;;;;;;4862088;29;20100;-87
2022/05/31 12:33:49;;;;;;;14.30;5.63;;;15.20;99.90;;;;;;4918097;29;20142;-87
2022/05/31 12:36:21;;;;;;;10.50;5.75;;;14.90;99.90;;;;;;4902350;29;20151;-86
2022/05/31 12:39:08;;;;;;;10.73;6.28;;;14.60;99.90;;;;;;4918380;29;20051;-86
2022/05/31 12:41:43;;;;;;;8.07;5.88;;;14.40;99.90;;;;;;4902664;29;20147;-85
2022/05/31 12:44:15;;;;;;;9.98;6.63;;;14.10;99.90;;;;;;4904563;29;20155;-86
2022/05/31 12:46:45;;;;;;;10.63;7.15;;;14.00;99.90;;;;;;4935935;28;20054;-86
2022/05/31 12:49:17;;;;;;;14.32;7.72;;;13.80;99.90;;;;;;5019336;28;20096;-86
2022/05/31 12:52:18;;;;;;;11.75;8.00;;;14.10;99.90;;;;;;5019459;28;20052;-86
2022/05/31 12:54:46;;;;;;;10.25;6.55;;;13.40;99.90;;;;;;5019046;28;20048;-86
2022/05/31 12:57:24;;;;;;;11.50;7.68;;;13.50;99.90;;;;;;5035925;28;20096;-85
2022/05/31 12:59:53;;;;;;;12.93;7.93;;;13.30;99.90;;;;;;5042603;28;20041;-86
2022/05/31 13:02:32;;;;;;;13.07;8.02;;;13.20;99.90;;;;;;5037240;28;20037;-85
2022/05/31 13:05:06;;;;;;;11.70;7.90;;;13.20;99.90;;;;;;5058266;28;20083;-86
2022/05/31 13:07:44;;;;;;;12.32;8.25;;;13.30;99.90;;;;;;5037999;28;20038;-86
2022/05/31 13:10:32;;;;;;;14.73;9.40;;;13.10;99.90;;;;;;5051516;28;20120;-86
2022/05/31 13:21:27;;;;;;;11.88;8.23;;;13.00;99.90;;;;;;5048937;28;20041;-87
2022/05/31 13:23:54;;;;;;;9.70;6.97;;;13.10;99.90;;;;;;5050726;28;20045;-87
2022/05/31 13:26:28;;;;;;;10.75;7.53;;;13.10;99.90;;;;;;5030989;28;20103;-87
2022/05/31 13:28:56;;;;;;;12.43;7.60;;;13.00;99.90;;;;;;5020379;28;20489;-87
2022/05/31 13:31:25;;;;;;;13.13;7.85;;;13.10;99.90;;;;;;5035769;28;20045;-87
2022/05/31 13:33:58;;;;;;;12.27;7.88;;;13.30;99.90;;;;;;5019379;28;20039;-87
2022/05/31 13:36:27;;;;;;;11.43;7.63;;;13.40;99.90;;;;;;5019183;28;20049;-86
2022/05/31 13:39:16;;;;;;;12.10;8.10;;;13.30;99.90;;;;;;5035204;28;20108;-87
2022/05/31 13:42:02;;;;;;;10.93;8.77;;;13.10;99.90;;;;;;5035411;28;20401;-87
2022/05/31 13:44:33;;;;;;;11.80;7.57;;;13.20;99.90;;;;;;5034822;28;20095;-87
2022/05/31 13:47:03;;;;;;;14.48;9.70;;;13.40;99.90;;;;;;5035140;28;20124;-87
2022/05/31 13:49:43;;;;;;;13.35;8.48;;;13.40;99.90;;;;;;5018097;28;20080;-87
2022/05/31 13:52:27;;;;;;;15.15;8.85;;;13.60;99.90;;;;;;5018496;28;20041;-87